Sign in

Advertising

Sponsor

Info

Aviation weather - KDAB

METAR KDAB 300653Z 00000KT 5SM BR FEW150 22/21 A2995 RMK AO2 SLP142 T02170206

TAF KDAB 300539Z 3006/0106 VRB03KT P6SM SCT080 SCT200 FM301400 13007KT P6SM FEW025 SCT200 FM301700 11010KT P6SM FEW040 SCT200 FM010100 12003KT P6SM FEW070 BKN250

Aviation weather from ADDS. Re-check weather before flight.

-